Time;durP1;ratioP1;P1;durP2;ratioP2;P2;SDS_P1;SDS_P2;PMS_P1;PMS_P2;Temp;Humidity;BMP_temperature;BMP_pressure;BME280_temperature;BME280_humidity;BME280_pressure;Samples;Min_cycle;Max_cycle;Signal;HPM_P1;HPM_P2
2022/01/20 00:00:55;;;;;;;;;38.00;33.50;;;;;7.75;73.77;102080.81;4979148;28;46203;-64
2022/01/20 00:03:24;;;;;;;;;35.50;29.75;;;;;7.73;73.85;102075.66;4978646;28;45321;-63
2022/01/20 00:08:32;;;;;;;;;36.75;31.00;;;;;7.70;73.47;102083.66;4962122;28;45339;-64
2022/01/20 00:27:22;;;;;;;;;26.50;24.25;;;;;7.53;73.00;102084.53;4978944;28;45234;-63
2022/01/20 00:32:14;;;;;;;;;26.75;23.50;;;;;7.49;72.91;102069.91;4978466;28;45888;-61
2022/01/20 00:37:25;;;;;;;;;31.00;27.50;;;;;7.46;72.59;102064.84;4978888;28;45354;-62
2022/01/20 00:39:50;;;;;;;;;30.75;25.50;;;;;7.43;72.93;102060.63;4978594;28;45473;-63
2022/01/20 00:42:16;;;;;;;;;30.00;27.00;;;;;7.41;72.58;102062.47;4977412;28;75729;-62
2022/01/20 00:44:44;;;;;;;;;31.50;26.00;;;;;7.38;72.59;102067.84;4961094;28;45513;-63
2022/01/20 00:47:09;;;;;;;;;37.25;31.00;;;;;7.35;72.64;102072.41;4978535;28;45288;-62
2022/01/20 00:49:35;;;;;;;;;31.00;27.50;;;;;7.34;72.62;102066.31;4978574;28;45224;-66
2022/01/20 00:52:00;;;;;;;;;37.75;30.00;;;;;7.31;72.62;102073.47;4978104;28;46471;-66
2022/01/20 00:54:26;;;;;;;;;31.75;26.75;;;;;7.28;72.40;102080.56;4961045;28;45191;-63
2022/01/20 00:56:51;;;;;;;;;28.00;25.25;;;;;7.28;72.56;102084.91;4944139;28;60305;-65
2022/01/20 00:59:17;;;;;;;;;28.25;23.00;;;;;7.25;72.50;102075.47;4977786;28;61733;-62
2022/01/20 01:01:42;;;;;;;;;31.00;25.75;;;;;7.22;72.47;102074.75;4943926;28;66023;-64
2022/01/20 01:04:07;;;;;;;;;29.50;25.75;;;;;7.20;72.24;102081.84;4977104;28;66780;-62
2022/01/20 01:09:10;;;;;;;;;29.75;25.25;;;;;7.14;72.07;102085.59;4978088;28;45388;-62
2022/01/20 01:11:37;;;;;;;;;27.75;22.75;;;;;7.13;72.42;102091.75;4977972;28;45400;-63
2022/01/20 01:14:04;;;;;;;;;28.75;22.75;;;;;7.10;71.92;102084.06;4960444;28;45783;-63
2022/01/20 01:22:42;;;;;;;;;25.75;23.50;;;;;7.03;71.95;102085.28;4977786;28;45843;-61
2022/01/20 01:24:54;;;;;;;;;25.25;21.25;;;;;7.02;71.99;102107.09;4953267;28;45885;-62
2022/01/20 01:27:21;;;;;;;;;30.75;23.50;;;;;6.98;71.87;102102.03;4978017;28;45382;-63
2022/01/20 01:32:25;;;;;;;;;26.50;24.25;;;;;6.93;71.77;102105.78;4977633;28;45355;-64
2022/01/20 01:34:53;;;;;;;;;29.25;23.50;;;;;6.90;71.85;102111.16;4977742;28;45357;-63
2022/01/20 01:39:59;;;;;;;;;36.25;24.75;;;;;6.85;71.70;102120.97;4962314;28;45322;-62
2022/01/20 01:42:32;;;;;;;;;25.25;23.25;;;;;6.82;71.63;102116.75;4943860;28;45752;-63
2022/01/20 01:45:08;;;;;;;;;27.75;20.50;;;;;6.78;71.81;102123.88;4977516;28;45358;-61
2022/01/20 01:47:34;;;;;;;;;27.00;20.25;;;;;6.77;71.82;102121.34;4960150;28;45334;-62
2022/01/20 01:49:59;;;;;;;;;26.25;20.75;;;;;6.75;71.63;102120.59;4976434;28;70592;-63
2022/01/20 01:52:25;;;;;;;;;29.25;21.25;;;;;6.72;71.55;102136.41;4959624;28;46291;-61
2022/01/20 01:54:50;;;;;;;;;28.00;25.25;;;;;6.70;71.82;102146.06;4976752;28;63575;-63
2022/01/20 01:57:15;;;;;;;;;20.00;18.50;;;;;6.69;71.46;102158.25;4976609;28;63898;-62
2022/01/20 01:59:41;;;;;;;;;22.75;21.50;;;;;6.67;71.42;102155.75;4976509;28;62931;-62
2022/01/20 02:02:07;;;;;;;;;27.00;23.00;;;;;6.66;71.25;102158.41;4976663;28;45528;-64
2022/01/20 02:04:33;;;;;;;;;22.50;19.50;;;;;6.63;71.36;102154.19;4977150;28;45445;-63
2022/01/20 02:20:35;;;;;;;;;24.25;20.25;;;;;6.39;70.76;102162.19;4965255;28;45496;-60
2022/01/20 02:23:00;;;;;;;;;25.25;21.25;;;;;6.36;70.49;102171.94;4958836;28;69862;-62
2022/01/20 02:25:27;;;;;;;;;21.75;21.25;;;;;6.29;70.29;102166.16;4959511;28;49445;-64
2022/01/20 02:27:53;;;;;;;;;25.75;21.00;;;;;6.24;70.51;102162.91;4959425;28;45454;-64
2022/01/20 02:30:19;;;;;;;;;24.00;21.00;;;;;6.19;70.60;102163.09;4976910;28;45592;-64
2022/01/20 02:33:19;;;;;;;;;20.25;16.25;;;;;6.17;70.82;102172.75;4959274;28;46138;-63
2022/01/20 02:35:58;;;;;;;;;19.75;15.25;;;;;6.17;70.87;102169.31;4959387;28;45387;-64
2022/01/20 02:38:34;;;;;;;;;16.75;14.25;;;;;6.15;70.91;102171.97;4959440;28;45370;-61
2022/01/20 02:46:30;;;;;;;;;18.25;15.25;;;;;6.09;70.88;102170.47;4961941;28;46054;-62
2022/01/20 02:48:55;;;;;;;;;16.75;15.00;;;;;6.10;70.86;102168.69;4976839;28;45438;-62
2022/01/20 02:51:20;;;;;;;;;10.50;9.50;;;;;6.08;70.83;102163.56;4959270;28;45414;-63
2022/01/20 02:53:46;;;;;;;;;16.00;15.00;;;;;6.07;70.58;102150.59;4975869;28;68131;-63
2022/01/20 02:56:11;;;;;;;;;18.25;13.50;;;;;6.05;70.47;102152.41;4976086;28;63868;-62
2022/01/20 02:58:37;;;;;;;;;18.25;15.25;;;;;6.03;70.41;102155.06;4975835;28;68275;-63
2022/01/20 03:01:02;;;;;;;;;15.75;13.75;;;;;6.01;70.29;102149.06;4959422;28;45413;-63
2022/01/20 03:03:28;;;;;;;;;18.75;15.00;;;;;5.97;70.11;102155.31;4959087;28;48318;-62
2022/01/20 03:05:53;;;;;;;;;12.25;10.75;;;;;5.93;70.03;102157.22;4976122;28;58698;-62
2022/01/20 03:08:18;;;;;;;;;13.25;12.25;;;;;5.91;70.17;102158.19;4975923;28;62186;-64
2022/01/20 03:10:44;;;;;;;;;19.00;14.50;;;;;5.86;69.90;102150.56;4976317;28;45297;-62
2022/01/20 03:13:09;;;;;;;;;18.50;14.00;;;;;5.85;69.81;102158.44;4976484;28;46084;-63
2022/01/20 03:15:35;;;;;;;;;18.00;16.25;;;;;5.81;69.53;102168.16;4975730;28;66621;-61
2022/01/20 03:18:02;;;;;;;;;21.00;16.50;;;;;5.77;69.32;102177.03;4976669;28;45235;-61
2022/01/20 03:20:28;;;;;;;;;23.50;17.25;;;;;5.74;69.30;102171.94;4976579;28;45347;-64
2022/01/20 03:22:53;;;;;;;;;21.25;17.00;;;;;5.69;69.09;102179.09;4976246;28;45599;-63
2022/01/20 03:25:18;;;;;;;;;20.50;14.50;;;;;5.65;68.81;102196.66;4975848;28;61729;-62
2022/01/20 03:27:44;;;;;;;;;21.25;16.50;;;;;5.60;68.86;102193.38;4959085;28;45430;-63
2022/01/20 03:30:10;;;;;;;;;16.50;12.75;;;;;5.56;69.04;102186.59;4958916;28;45408;-63
2022/01/20 03:32:35;;;;;;;;;19.50;12.50;;;;;5.52;68.81;102182.41;4976100;28;45345;-62
2022/01/20 03:35:02;;;;;;;;;23.75;16.00;;;;;5.48;68.90;102189.50;4976209;28;45433;-63
2022/01/20 03:37:27;;;;;;;;;17.25;16.00;;;;;5.44;68.67;102196.59;4959107;28;45429;-62
2022/01/20 03:39:52;;;;;;;;;17.75;13.75;;;;;5.40;68.95;102197.63;4977947;28;65569;-61
2022/01/20 03:42:18;;;;;;;;;16.50;14.00;;;;;5.37;68.96;102189.94;4978068;28;74263;-62
2022/01/20 03:44:43;;;;;;;;;13.00;12.00;;;;;5.35;68.75;102189.13;4961082;28;63469;-62
2022/01/20 03:47:10;;;;;;;;;17.00;14.00;;;;;5.29;68.66;102190.25;4978744;28;60919;-61
2022/01/20 03:49:40;;;;;;;;;16.75;15.50;;;;;5.26;68.64;102190.38;4979400;28;45349;-64
2022/01/20 03:52:06;;;;;;;;;17.00;14.00;;;;;5.19;68.63;102205.41;4978952;28;45624;-61
2022/01/20 03:54:31;;;;;;;;;17.75;13.50;;;;;5.13;68.65;102195.22;4961808;28;45318;-63
2022/01/20 03:56:56;;;;;;;;;21.50;14.25;;;;;5.10;68.71;102189.25;4978480;28;65612;-63
2022/01/20 03:59:22;;;;;;;;;17.25;13.00;;;;;5.05;68.62;102197.25;4978970;28;52701;-61
2022/01/20 04:01:47;;;;;;;;;17.50;15.00;;;;;5.00;68.54;102209.59;4961786;28;45578;-63
2022/01/20 04:04:13;;;;;;;;;16.00;14.50;;;;;4.93;68.57;102209.00;4978546;28;60614;-60
2022/01/20 04:06:38;;;;;;;;;18.25;14.75;;;;;4.88;68.95;102216.97;4978458;28;65467;-62
2022/01/20 04:09:03;;;;;;;;;19.25;15.00;;;;;4.84;69.13;102215.38;4978228;28;67768;-61
2022/01/20 04:11:29;;;;;;;;;18.25;13.75;;;;;4.82;68.99;102217.19;4960865;28;65543;-63
2022/01/20 04:13:55;;;;;;;;;17.25;13.50;;;;;4.79;69.14;102217.31;4961643;28;45422;-63
2022/01/20 04:16:33;;;;;;;;;17.50;14.25;;;;;4.76;69.02;102230.47;4979171;28;45720;-62
2022/01/20 04:18:59;;;;;;;;;20.75;14.25;;;;;4.72;69.14;102227.13;4962406;28;45311;-63
2022/01/20 04:21:29;;;;;;;;;22.00;15.00;;;;;4.70;69.00;102228.09;4978882;28;46305;-63
2022/01/20 04:23:55;;;;;;;;;23.75;17.00;;;;;4.68;69.13;102233.34;4961563;28;45752;-61
2022/01/20 04:26:21;;;;;;;;;15.25;13.75;;;;;4.64;69.41;102231.75;4978821;28;45590;-64
2022/01/20 04:28:46;;;;;;;;;15.25;13.50;;;;;4.64;69.40;102231.75;4978778;28;45510;-63
2022/01/20 04:31:12;;;;;;;;;18.25;14.00;;;;;4.64;69.16;102230.91;4978677;28;45425;-63
2022/01/20 04:33:37;;;;;;;;;14.25;13.00;;;;;4.60;69.51;102219.75;4961020;28;45497;-64
2022/01/20 04:36:04;;;;;;;;;15.50;14.50;;;;;4.55;69.43;102230.34;4960221;28;68804;-63
2022/01/20 04:38:30;;;;;;;;;17.25;12.75;;;;;4.53;69.50;102226.94;4978525;28;45680;-63
2022/01/20 04:40:55;;;;;;;;;15.50;12.50;;;;;4.48;69.21;102235.81;4977726;28;63264;-61
2022/01/20 04:43:21;;;;;;;;;9.50;9.25;;;;;4.44;69.42;102232.47;4978367;28;47281;-63
2022/01/20 04:45:54;;;;;;;;;15.25;11.75;;;;;4.39;69.48;102239.59;4978525;28;45323;-62
2022/01/20 04:59:15;;;;;;;;;11.75;9.25;;;;;4.21;69.97;102244.53;4978400;28;45268;-63
2022/01/20 05:01:45;;;;;;;;;8.75;7.00;;;;;4.21;69.68;102244.53;4977435;28;66445;-61
2022/01/20 05:04:10;;;;;;;;;9.50;8.25;;;;;4.22;70.18;102227.16;4978257;28;45461;-62
2022/01/20 05:06:39;;;;;;;;;10.75;10.00;;;;;4.23;70.18;102221.06;4978618;28;45472;-62
2022/01/20 05:09:04;;;;;;;;;10.75;8.50;;;;;4.25;70.11;102232.25;4960862;28;45280;-61
2022/01/20 05:11:30;;;;;;;;;15.00;12.25;;;;;4.23;70.06;102232.34;4978061;28;46061;-62
2022/01/20 05:13:57;;;;;;;;;21.75;18.50;;;;;4.23;70.13;102237.53;4960633;28;45356;-64
2022/01/20 05:16:24;;;;;;;;;30.50;26.75;;;;;4.22;69.91;102233.22;4978129;28;45286;-61
2022/01/20 05:18:49;;;;;;;;;26.25;24.00;;;;;4.23;69.93;102239.28;4977869;28;45507;-62
2022/01/20 05:21:14;;;;;;;;;24.50;19.75;;;;;4.20;69.90;102229.84;4977722;28;47682;-61
2022/01/20 05:23:40;;;;;;;;;25.75;18.25;;;;;4.21;69.89;102231.53;4976879;28;66990;-61
2022/01/20 05:26:05;;;;;;;;;23.75;18.50;;;;;4.21;69.80;102221.13;4977770;28;45308;-63
2022/01/20 05:28:31;;;;;;;;;18.25;17.75;;;;;4.24;69.84;102231.41;4977821;28;45479;-63
2022/01/20 05:30:56;;;;;;;;;23.75;12.00;;;;;4.24;69.91;102230.56;4977546;28;45489;-62
2022/01/20 05:33:21;;;;;;;;;25.75;18.75;;;;;4.24;69.56;102239.19;4977568;28;45289;-61
2022/01/20 05:35:47;;;;;;;;;21.75;16.25;;;;;4.23;69.68;102236.66;4977264;28;58288;-63
2022/01/20 05:38:12;;;;;;;;;32.25;21.75;;;;;4.23;69.73;102252.28;4977510;28;45501;-60
2022/01/20 05:40:38;;;;;;;;;36.75;24.00;;;;;4.22;69.72;102254.06;4977644;28;46162;-63
2022/01/20 05:43:04;;;;;;;;;28.25;23.25;;;;;4.20;69.43;102263.66;4977368;28;45345;-60
2022/01/20 05:45:29;;;;;;;;;22.75;16.75;;;;;4.19;69.50;102259.34;4977593;28;45817;-64
2022/01/20 05:48:07;;;;;;;;;13.00;11.75;;;;;4.19;69.66;102261.94;4977711;28;45342;-61
2022/01/20 05:50:32;;;;;;;;;20.25;15.00;;;;;4.20;69.75;102258.44;4944912;28;48036;-61
2022/01/20 05:52:58;;;;;;;;;14.25;9.75;;;;;4.20;70.02;102261.06;4976375;28;66883;-62
2022/01/20 05:55:23;;;;;;;;;9.75;9.50;;;;;4.22;70.12;102258.38;4976516;28;66175;-61
2022/01/20 05:57:48;;;;;;;;;14.25;9.00;;;;;4.23;70.03;102265.28;4976464;28;67162;-62
2022/01/20 06:00:17;;;;;;;;;13.75;9.00;;;;;4.26;69.70;102270.38;4977098;28;46240;-62
2022/01/20 06:05:27;;;;;;;;;15.50;13.00;;;;;4.27;69.68;102278.13;4949096;28;45418;-63
2022/01/20 06:07:52;;;;;;;;;21.50;14.50;;;;;4.28;69.61;102274.63;4977117;28;45346;-61
2022/01/20 06:10:17;;;;;;;;;28.75;21.00;;;;;4.28;69.58;102282.44;4976104;28;67173;-63
2022/01/20 06:12:43;;;;;;;;;23.25;19.50;;;;;4.28;69.60;102285.03;4975909;28;69861;-62
2022/01/20 06:15:10;;;;;;;;;16.75;16.75;;;;;4.29;69.47;102280.69;4959273;28;45472;-63
2022/01/20 06:17:36;;;;;;;;;15.50;14.00;;;;;4.28;69.25;102279.84;4976690;28;45588;-64
2022/01/20 06:20:03;;;;;;;;;14.75;12.50;;;;;4.28;69.01;102273.78;4976714;28;45509;-63
2022/01/20 06:22:29;;;;;;;;;21.00;14.75;;;;;4.25;68.96;102279.94;4959447;28;45912;-61
2022/01/20 06:24:54;;;;;;;;;17.25;14.25;;;;;4.23;69.02;102281.78;4976381;28;64940;-62
2022/01/20 06:27:19;;;;;;;;;29.50;20.75;;;;;4.22;69.12;102284.41;4976201;28;68088;-62
2022/01/20 06:29:46;;;;;;;;;28.50;23.25;;;;;4.21;69.00;102288.78;4975692;28;70235;-64
2022/01/20 06:32:11;;;;;;;;;21.75;18.75;;;;;4.21;69.12;102291.38;4976603;28;45326;-64
2022/01/20 06:34:37;;;;;;;;;14.50;13.50;;;;;4.18;68.89;102285.41;4976792;28;45807;-63
2022/01/20 06:37:02;;;;;;;;;18.50;16.00;;;;;4.16;69.09;102282.88;4959315;28;45216;-62
2022/01/20 06:39:28;;;;;;;;;21.00;17.25;;;;;4.16;68.92;102301.91;4976344;28;46344;-63
2022/01/20 06:41:53;;;;;;;;;21.25;13.75;;;;;4.14;69.03;102302.88;4958297;28;67658;-62
2022/01/20 06:44:20;;;;;;;;;16.00;13.25;;;;;4.14;68.99;102302.88;4976651;28;45243;-64
2022/01/20 06:46:45;;;;;;;;;21.25;15.50;;;;;4.11;69.31;102302.97;4976292;28;45474;-63
2022/01/20 06:49:11;;;;;;;;;24.75;19.25;;;;;4.11;68.98;102308.19;4958493;28;49615;-61
2022/01/20 06:51:36;;;;;;;;;20.25;13.00;;;;;4.08;69.02;102316.09;4975119;28;68065;-62
2022/01/20 06:54:02;;;;;;;;;17.75;12.50;;;;;4.05;68.93;102324.00;4976332;28;45389;-61
2022/01/20 06:56:28;;;;;;;;;15.25;11.00;;;;;4.01;69.19;102329.28;4976449;28;45414;-63
2022/01/20 06:58:53;;;;;;;;;23.00;18.75;;;;;4.01;69.41;102334.50;4976107;28;45525;-61
2022/01/20 07:01:18;;;;;;;;;17.75;14.50;;;;;4.01;69.57;102336.22;4976176;28;45432;-61
2022/01/20 07:03:44;;;;;;;;;15.00;8.50;;;;;4.03;69.55;102342.22;4976286;28;45357;-63
2022/01/20 07:06:09;;;;;;;;;33.75;28.75;;;;;4.04;69.63;102349.13;4976113;28;45572;-64
2022/01/20 07:08:34;;;;;;;;;18.50;16.50;;;;;4.05;69.77;102344.78;4975597;28;51233;-65
2022/01/20 07:11:00;;;;;;;;;15.50;11.00;;;;;4.07;69.70;102354.25;4975149;28;69191;-62
2022/01/20 07:13:25;;;;;;;;;10.25;6.25;;;;;4.09;70.08;102359.41;4959402;28;45377;-62
2022/01/20 07:15:51;;;;;;;;;9.75;6.75;;;;;4.11;70.01;102361.03;4979187;28;55853;-64
2022/01/20 07:18:16;;;;;;;;;7.50;7.25;;;;;4.12;69.88;102370.56;4979322;28;46014;-63
2022/01/20 07:20:41;;;;;;;;;9.00;8.50;;;;;4.15;69.74;102367.03;4962017;28;45304;-62
2022/01/20 07:23:07;;;;;;;;;9.75;7.50;;;;;4.19;69.79;102372.97;4944860;28;66149;-64
2022/01/20 07:25:32;;;;;;;;;13.75;9.00;;;;;4.20;69.65;102382.47;4961362;28;61264;-62
2022/01/20 07:27:58;;;;;;;;;9.25;8.00;;;;;4.22;69.73;102385.88;4960896;28;71463;-63
2022/01/20 07:30:23;;;;;;;;;11.25;9.00;;;;;4.23;69.54;102383.25;4979359;28;45238;-62
2022/01/20 07:32:48;;;;;;;;;9.25;7.50;;;;;4.24;69.82;102384.91;4979322;28;45235;-64
2022/01/20 07:35:14;;;;;;;;;13.00;8.00;;;;;4.24;69.81;102382.31;4979076;28;45268;-64
2022/01/20 07:37:39;;;;;;;;;16.75;12.00;;;;;4.24;69.67;102382.31;4978217;28;70562;-61
2022/01/20 07:40:05;;;;;;;;;10.50;7.50;;;;;4.24;69.74;102384.91;4978623;28;57218;-63
2022/01/20 07:42:31;;;;;;;;;17.25;14.50;;;;;4.24;69.92;102390.13;4979073;28;45188;-63
2022/01/20 07:44:56;;;;;;;;;31.50;25.50;;;;;4.23;69.99;102388.44;4978937;28;45199;-62
2022/01/20 07:47:21;;;;;;;;;42.00;35.75;;;;;4.25;69.93;102385.78;4961401;28;45995;-64
2022/01/20 07:49:47;;;;;;;;;52.75;40.00;;;;;4.25;69.79;102397.03;4977866;28;66187;-63
2022/01/20 07:52:14;;;;;;;;;58.00;43.00;;;;;4.26;69.72;102390.94;4978711;28;45326;-62
2022/01/20 07:54:39;;;;;;;;;31.50;30.50;;;;;4.28;70.04;102389.13;4979157;28;45445;-63
2022/01/20 07:57:05;;;;;;;;;56.75;44.75;;;;;4.28;69.94;102391.72;4978754;28;46244;-64
2022/01/20 07:59:30;;;;;;;;;38.50;30.75;;;;;4.30;70.06;102394.28;4978781;28;45376;-63
2022/01/20 08:01:56;;;;;;;;;31.75;25.50;;;;;4.30;70.00;102395.13;4960634;28;63375;-63
2022/01/20 08:04:21;;;;;;;;;42.50;34.75;;;;;4.31;70.22;102389.03;4960413;28;69392;-63
2022/01/20 08:06:46;;;;;;;;;52.75;39.50;;;;;4.34;70.63;102388.09;4978740;28;45419;-61
2022/01/20 08:09:12;;;;;;;;;31.75;29.25;;;;;4.37;70.39;102384.53;4977951;28;59934;-63
2022/01/20 08:11:37;;;;;;;;;36.25;28.00;;;;;4.39;70.58;102391.41;4977827;28;68850;-61
2022/01/20 08:14:02;;;;;;;;;31.25;27.75;;;;;4.41;71.08;102393.94;4978766;28;45351;-62
2022/01/20 08:16:28;;;;;;;;;34.75;22.25;;;;;4.45;70.83;102393.81;4960046;28;64862;-63
2022/01/20 08:18:53;;;;;;;;;43.75;37.25;;;;;4.50;70.87;102393.66;4960391;28;63160;-63
2022/01/20 08:21:19;;;;;;;;;36.75;28.00;;;;;4.55;71.23;102394.34;4977507;28;69609;-63
2022/01/20 08:23:44;;;;;;;;;24.75;23.75;;;;;4.60;71.31;102388.97;4960915;28;45616;-64
2022/01/20 08:26:10;;;;;;;;;21.50;16.50;;;;;4.65;71.09;102391.44;4978171;28;46140;-64
2022/01/20 08:28:35;;;;;;;;;19.25;17.50;;;;;4.70;71.31;102389.53;4977363;28;61900;-65
2022/01/20 08:31:01;;;;;;;;;32.50;25.50;;;;;4.73;71.18;102385.06;4958846;28;65083;-64
2022/01/20 08:33:26;;;;;;;;;40.00;36.00;;;;;4.78;71.29;102382.28;4978462;28;45351;-60
2022/01/20 08:35:51;;;;;;;;;32.25;29.00;;;;;4.82;71.10;102372.63;4960721;28;48416;-64
2022/01/20 08:38:17;;;;;;;;;41.75;32.50;;;;;4.85;71.10;102382.94;4960893;28;45256;-62
2022/01/20 08:40:43;;;;;;;;;51.00;37.00;;;;;4.90;70.91;102392.28;4978315;28;45353;-62
2022/01/20 08:43:08;;;;;;;;;37.75;33.25;;;;;4.94;71.26;102400.88;4959807;28;45624;-63
2022/01/20 08:45:34;;;;;;;;;36.25;30.75;;;;;4.99;71.00;102405.91;4993365;28;45321;-62
2022/01/20 08:48:00;;;;;;;;;40.00;26.25;;;;;5.01;71.08;102415.38;4997496;28;45344;-65
2022/01/20 08:50:26;;;;;;;;;42.25;30.50;;;;;5.04;70.95;102412.66;4963284;28;45452;-62
2022/01/20 08:52:52;;;;;;;;;57.75;42.50;;;;;5.08;70.97;102415.16;4924220;28;45636;-64
2022/01/20 08:55:17;;;;;;;;;54.25;42.25;;;;;5.10;71.08;102422.03;4958602;28;45422;-61
2022/01/20 08:57:44;;;;;;;;;33.25;29.25;;;;;5.12;70.80;102407.19;4957268;28;45398;-61
2022/01/20 09:00:09;;;;;;;;;66.75;51.50;;;;;5.17;70.81;102410.47;4940924;28;45403;-62
2022/01/20 09:02:36;;;;;;;;;46.25;32.50;;;;;5.19;70.82;102419.09;4958233;28;45435;-62
2022/01/20 09:05:02;;;;;;;;;35.25;27.75;;;;;5.22;70.66;102418.13;4958083;28;46303;-62
2022/01/20 09:07:28;;;;;;;;;55.00;42.50;;;;;5.24;70.76;102416.31;4958036;28;45368;-62
2022/01/20 09:09:55;;;;;;;;;37.75;32.00;;;;;5.27;70.91;102408.38;4957280;28;63445;-63
2022/01/20 09:17:42;;;;;;;;;39.00;30.75;;;;;5.40;70.99;102411.38;4943496;28;45440;-62
2022/01/20 09:20:08;;;;;;;;;40.75;35.00;;;;;5.47;71.12;102417.25;4957157;28;62795;-63
2022/01/20 09:22:33;;;;;;;;;60.00;47.50;;;;;5.53;70.99;102426.59;4957785;28;45628;-62
2022/01/20 09:24:59;;;;;;;;;43.50;31.50;;;;;5.59;71.23;102431.59;4957930;28;46403;-63
2022/01/20 09:27:24;;;;;;;;;40.00;32.00;;;;;5.65;70.94;102442.63;4957375;28;56533;-62
2022/01/20 09:29:49;;;;;;;;;27.25;25.00;;;;;5.71;70.90;102440.69;4957079;28;66011;-62
2022/01/20 09:32:17;;;;;;;;;39.75;29.00;;;;;5.77;70.85;102445.69;4957794;28;45236;-63
2022/01/20 09:34:42;;;;;;;;;24.00;17.50;;;;;5.81;70.73;102452.50;4959969;28;45499;-63
2022/01/20 09:37:08;;;;;;;;;20.75;16.50;;;;;5.88;70.73;102455.72;4958729;28;45474;-61
2022/01/20 09:39:34;;;;;;;;;19.00;12.25;;;;;5.93;70.88;102466.84;4977258;28;45848;-63
2022/01/20 09:41:59;;;;;;;;;25.50;21.50;;;;;5.97;70.69;102463.19;4977253;28;46099;-61
2022/01/20 09:44:25;;;;;;;;;36.00;24.25;;;;;6.02;70.79;102463.91;4943379;28;46390;-61
2022/01/20 09:46:50;;;;;;;;;31.75;27.25;;;;;6.08;70.48;102450.63;4959286;28;45337;-62
2022/01/20 09:49:16;;;;;;;;;35.25;31.50;;;;;6.11;70.50;102456.66;4959520;28;45389;-65
2022/01/20 09:51:41;;;;;;;;;24.75;22.50;;;;;6.15;70.54;102450.41;4957970;28;67343;-63
2022/01/20 09:54:07;;;;;;;;;22.00;21.75;;;;;6.17;70.11;102445.97;4958944;28;46623;-64
2022/01/20 09:56:33;;;;;;;;;13.00;11.75;;;;;6.22;69.97;102451.84;4958199;28;45373;-63
2022/01/20 09:58:58;;;;;;;;;32.00;26.25;;;;;6.26;70.23;102453.44;4976699;28;45180;-64
2022/01/20 10:01:50;;;;;;;;;35.75;29.75;;;;;6.30;70.12;102441.97;4976387;28;45496;-63
2022/01/20 10:04:22;;;;;;;;;19.75;15.75;;;;;6.32;69.85;102440.16;4928344;28;47419;-61
2022/01/20 10:06:58;;;;;;;;;24.75;19.00;;;;;6.35;69.98;102447.88;4958742;28;45826;-61
2022/01/20 10:09:39;;;;;;;;;29.00;26.50;;;;;6.45;69.93;102452.69;4976489;28;45427;-63
2022/01/20 10:12:05;;;;;;;;;27.00;22.75;;;;;6.51;70.08;102468.97;4976111;28;45215;-63
2022/01/20 10:14:41;;;;;;;;;20.25;15.50;;;;;6.63;69.63;102475.47;4942595;28;47048;-62
2022/01/20 10:17:27;;;;;;;;;24.50;16.75;;;;;6.70;69.48;102473.44;4975736;28;45794;-64
2022/01/20 10:20:02;;;;;;;;;19.00;15.50;;;;;6.76;69.41;102472.34;4958706;28;45317;-62
2022/01/20 10:22:28;;;;;;;;;28.25;23.00;;;;;6.81;69.10;102481.69;4959143;28;45437;-63
2022/01/20 10:25:02;;;;;;;;;20.50;14.75;;;;;6.89;68.99;102491.81;4975706;28;45670;-62
2022/01/20 10:27:32;;;;;;;;;13.25;10.50;;;;;6.91;68.89;102497.00;4958257;28;45355;-62
2022/01/20 10:29:59;;;;;;;;;17.25;12.50;;;;;6.94;68.64;102497.69;4958366;28;45535;-61
2022/01/20 10:32:25;;;;;;;;;18.25;13.50;;;;;6.99;68.43;102505.38;4976145;28;45473;-64
2022/01/20 10:35:00;;;;;;;;;15.75;10.00;;;;;7.02;68.38;102505.25;4958340;28;45509;-63
2022/01/20 10:37:26;;;;;;;;;21.75;16.00;;;;;7.07;68.37;102508.50;4975854;28;45344;-64
2022/01/20 10:39:52;;;;;;;;;16.00;9.50;;;;;7.08;68.32;102504.13;4942269;28;45313;-63
2022/01/20 10:42:22;;;;;;;;;12.25;9.75;;;;;7.13;68.02;102502.16;4958206;28;45526;-62
2022/01/20 10:44:52;;;;;;;;;19.25;13.50;;;;;7.15;67.72;102500.34;4958085;28;46987;-61
2022/01/20 10:47:22;;;;;;;;;16.50;12.00;;;;;7.19;67.73;102507.13;4975982;28;45298;-61
2022/01/20 10:49:48;;;;;;;;;11.75;9.25;;;;;7.18;67.37;102515.03;4962215;28;45355;-62
2022/01/20 10:52:16;;;;;;;;;17.25;15.00;;;;;7.22;66.95;102519.22;4979324;28;45489;-62
2022/01/20 10:54:43;;;;;;;;;10.00;7.50;;;;;7.25;67.07;102511.25;4961678;28;45312;-63
2022/01/20 10:57:10;;;;;;;;;9.00;8.00;;;;;7.28;67.03;102509.38;4979154;28;45424;-64
2022/01/20 10:59:49;;;;;;;;;5.25;3.25;;;;;7.34;67.02;102508.25;4978624;28;45336;-62
2022/01/20 11:02:16;;;;;;;;;16.25;10.00;;;;;7.41;66.87;102506.22;4961018;28;45476;-65
2022/01/20 11:04:42;;;;;;;;;15.25;12.00;;;;;7.42;66.68;102500.91;4961506;28;51905;-63
2022/01/20 11:07:08;;;;;;;;;17.00;9.25;;;;;7.46;66.31;102498.16;4977445;28;45259;-62
2022/01/20 11:09:41;;;;;;;;;16.00;9.25;;;;;7.49;65.94;102501.50;4979149;28;45328;-63
2022/01/20 11:12:06;;;;;;;;;16.75;10.75;;;;;7.48;66.13;102498.94;4978875;28;45487;-62
2022/01/20 11:14:32;;;;;;;;;13.00;10.00;;;;;7.50;66.10;102500.56;4978985;28;46466;-61
2022/01/20 11:16:58;;;;;;;;;13.25;10.50;;;;;7.54;66.08;102502.13;4978650;28;45467;-63
2022/01/20 11:19:24;;;;;;;;;20.50;9.75;;;;;7.58;66.05;102503.72;4961537;28;45500;-61
2022/01/20 11:21:49;;;;;;;;;12.75;9.75;;;;;7.63;66.23;102484.34;4960634;28;62702;-63
2022/01/20 11:24:25;;;;;;;;;11.00;8.00;;;;;7.69;66.06;102484.06;4977813;28;66716;-64
2022/01/20 11:26:58;;;;;;;;;22.25;16.25;;;;;7.73;65.78;102490.88;4960617;28;45894;-62
2022/01/20 11:29:25;;;;;;;;;18.00;12.00;;;;;7.77;65.58;102481.97;4978340;28;45347;-62
2022/01/20 11:31:50;;;;;;;;;10.75;9.50;;;;;7.80;65.61;102475.72;4961384;28;45525;-63
2022/01/20 11:34:17;;;;;;;;;17.75;11.25;;;;;7.85;65.61;102484.22;4961217;28;45347;-60
2022/01/20 11:36:42;;;;;;;;;19.00;17.50;;;;;7.91;65.43;102485.72;4978798;28;45414;-63
2022/01/20 11:39:08;;;;;;;;;25.50;16.25;;;;;7.95;65.40;102487.28;4961037;28;45379;-62
2022/01/20 11:41:40;;;;;;;;;13.50;13.00;;;;;8.01;65.65;102479.13;4976941;28;59328;-62
2022/01/20 11:44:32;;;;;;;;;15.25;11.00;;;;;8.06;64.59;102478.91;4961097;28;46608;-63
2022/01/20 11:47:05;;;;;;;;;20.25;12.00;;;;;8.10;64.35;102483.09;4976307;28;45541;-61
2022/01/20 11:49:35;;;;;;;;;14.50;13.00;;;;;8.12;63.99;102487.31;4961012;28;45432;-64
2022/01/20 11:52:00;;;;;;;;;14.00;12.00;;;;;8.14;63.87;102495.97;4960668;28;45595;-64
2022/01/20 11:54:39;;;;;;;;;17.25;13.00;;;;;8.15;64.27;102497.66;4978412;28;46383;-63
2022/01/20 11:57:11;;;;;;;;;21.75;14.50;;;;;8.21;63.92;102506.16;4960982;28;45871;-63
2022/01/20 11:59:41;;;;;;;;;15.75;12.25;;;;;8.22;63.59;102502.63;4977794;28;45362;-62
2022/01/20 12:02:06;;;;;;;;;11.00;10.00;;;;;8.23;63.33;102491.22;4961553;28;45494;-61
2022/01/20 12:04:40;;;;;;;;;10.00;8.75;;;;;8.24;63.13;102495.53;4960936;28;45447;-62
2022/01/20 12:07:05;;;;;;;;;11.75;6.00;;;;;8.26;63.67;102493.69;4978433;28;45239;-63
2022/01/20 12:09:40;;;;;;;;;14.50;9.75;;;;;8.32;63.12;102494.25;4961005;28;45334;-63
2022/01/20 12:12:07;;;;;;;;;15.50;10.50;;;;;8.32;63.12;102501.25;4944647;28;45563;-63
2022/01/20 12:14:38;;;;;;;;;13.00;9.75;;;;;8.32;62.17;102503.88;4960146;28;45699;-61
2022/01/20 12:17:16;;;;;;;;;9.00;6.00;;;;;8.25;62.70;102508.53;4978126;28;45893;-62
2022/01/20 12:19:54;;;;;;;;;13.25;8.75;;;;;8.21;62.43;102508.78;4977869;28;45211;-60
2022/01/20 12:22:20;;;;;;;;;17.00;10.75;;;;;8.16;62.82;102504.59;4960790;28;45332;-63
2022/01/20 12:24:52;;;;;;;;;13.75;11.00;;;;;8.15;62.79;102502.06;4977770;28;50862;-64
2022/01/20 12:27:19;;;;;;;;;9.75;9.75;;;;;8.15;62.95;102502.91;4977989;28;45911;-64
2022/01/20 12:29:44;;;;;;;;;13.25;9.75;;;;;8.12;62.70;102502.19;4960776;28;45370;-62
2022/01/20 12:32:14;;;;;;;;;14.75;12.00;;;;;8.11;62.85;102503.97;4959545;28;70771;-63
2022/01/20 12:34:39;;;;;;;;;13.00;10.50;;;;;8.10;63.15;102510.13;4977917;28;46596;-63